sensor_id;sensor_type;location;lat;lon;timestamp;P1;durP1;ratioP1;P2;durP2;ratioP2
74620;SDS011;64861;47.546;19.254;2023-05-24T00:01:14;5.88;;;3.10;;
74620;SDS011;64861;47.546;19.254;2023-05-24T00:03:40;5.28;;;3.00;;
74620;SDS011;64861;47.546;19.254;2023-05-24T00:06:06;5.13;;;3.13;;
74620;SDS011;64861;47.546;19.254;2023-05-24T00:08:32;6.03;;;3.25;;
74620;SDS011;64861;47.546;19.254;2023-05-24T00:10:58;7.45;;;3.50;;
74620;SDS011;64861;47.546;19.254;2023-05-24T00:13:24;5.95;;;3.42;;
74620;SDS011;64861;47.546;19.254;2023-05-24T00:15:49;6.60;;;3.38;;
74620;SDS011;64861;47.546;19.254;2023-05-24T00:18:15;7.22;;;3.30;;
74620;SDS011;64861;47.546;19.254;2023-05-24T00:20:43;6.70;;;3.25;;
74620;SDS011;64861;47.546;19.254;2023-05-24T00:23:09;5.32;;;3.00;;
74620;SDS011;64861;47.546;19.254;2023-05-24T00:25:35;5.57;;;3.35;;
74620;SDS011;64861;47.546;19.254;2023-05-24T00:28:01;7.07;;;3.30;;
74620;SDS011;64861;47.546;19.254;2023-05-24T00:30:26;7.82;;;3.40;;
74620;SDS011;64861;47.546;19.254;2023-05-24T00:32:52;5.50;;;3.10;;
74620;SDS011;64861;47.546;19.254;2023-05-24T00:35:17;6.55;;;3.17;;
74620;SDS011;64861;47.546;19.254;2023-05-24T00:37:43;6.07;;;3.35;;
74620;SDS011;64861;47.546;19.254;2023-05-24T00:40:09;7.75;;;3.60;;
74620;SDS011;64861;47.546;19.254;2023-05-24T00:42:35;5.68;;;3.30;;
74620;SDS011;64861;47.546;19.254;2023-05-24T00:45:00;6.05;;;3.13;;
74620;SDS011;64861;47.546;19.254;2023-05-24T00:47:26;5.78;;;3.10;;
74620;SDS011;64861;47.546;19.254;2023-05-24T00:49:51;5.38;;;3.17;;
74620;SDS011;64861;47.546;19.254;2023-05-24T00:52:17;5.15;;;2.97;;
74620;SDS011;64861;47.546;19.254;2023-05-24T00:54:43;6.13;;;3.15;;
74620;SDS011;64861;47.546;19.254;2023-05-24T00:57:08;7.25;;;3.22;;
74620;SDS011;64861;47.546;19.254;2023-05-24T00:59:35;6.93;;;3.47;;
74620;SDS011;64861;47.546;19.254;2023-05-24T01:02:00;4.97;;;2.92;;
74620;SDS011;64861;47.546;19.254;2023-05-24T01:04:26;4.80;;;2.75;;
74620;SDS011;64861;47.546;19.254;2023-05-24T01:12:38;5.63;;;3.13;;
74620;SDS011;64861;47.546;19.254;2023-05-24T01:15:27;6.18;;;3.40;;
74620;SDS011;64861;47.546;19.254;2023-05-24T01:18:23;6.40;;;3.00;;
74620;SDS011;64861;47.546;19.254;2023-05-24T01:23:40;4.85;;;2.90;;
74620;SDS011;64861;47.546;19.254;2023-05-24T01:28:55;5.57;;;3.00;;
74620;SDS011;64861;47.546;19.254;2023-05-24T01:31:21;4.88;;;2.80;;
74620;SDS011;64861;47.546;19.254;2023-05-24T01:33:47;5.22;;;2.92;;
74620;SDS011;64861;47.546;19.254;2023-05-24T01:36:13;6.00;;;2.80;;
74620;SDS011;64861;47.546;19.254;2023-05-24T01:38:38;5.03;;;2.65;;
74620;SDS011;64861;47.546;19.254;2023-05-24T01:41:21;4.57;;;2.70;;
74620;SDS011;64861;47.546;19.254;2023-05-24T01:43:51;6.70;;;2.97;;
74620;SDS011;64861;47.546;19.254;2023-05-24T01:46:34;4.78;;;2.80;;
74620;SDS011;64861;47.546;19.254;2023-05-24T01:49:24;5.20;;;2.67;;
74620;SDS011;64861;47.546;19.254;2023-05-24T01:51:54;4.38;;;2.70;;
74620;SDS011;64861;47.546;19.254;2023-05-24T01:54:22;5.10;;;2.60;;
74620;SDS011;64861;47.546;19.254;2023-05-24T01:56:51;5.55;;;2.70;;
74620;SDS011;64861;47.546;19.254;2023-05-24T01:59:19;5.38;;;2.72;;
74620;SDS011;64861;47.546;19.254;2023-05-24T02:01:47;5.18;;;2.70;;
74620;SDS011;64861;47.546;19.254;2023-05-24T02:04:13;4.72;;;2.67;;
74620;SDS011;64861;47.546;19.254;2023-05-24T02:06:38;4.93;;;2.65;;
74620;SDS011;64861;47.546;19.254;2023-05-24T02:09:04;4.90;;;2.70;;
74620;SDS011;64861;47.546;19.254;2023-05-24T02:11:29;5.30;;;2.72;;
74620;SDS011;64861;47.546;19.254;2023-05-24T02:13:55;4.18;;;2.47;;
74620;SDS011;64861;47.546;19.254;2023-05-24T02:16:20;4.90;;;2.63;;
74620;SDS011;64861;47.546;19.254;2023-05-24T02:18:48;4.90;;;2.70;;
74620;SDS011;64861;47.546;19.254;2023-05-24T02:21:14;5.43;;;2.75;;
74620;SDS011;64861;47.546;19.254;2023-05-24T02:23:40;4.82;;;2.80;;
74620;SDS011;64861;47.546;19.254;2023-05-24T02:26:06;5.25;;;2.95;;
74620;SDS011;64861;47.546;19.254;2023-05-24T02:28:35;4.95;;;2.50;;
74620;SDS011;64861;47.546;19.254;2023-05-24T02:31:01;5.90;;;2.30;;
74620;SDS011;64861;47.546;19.254;2023-05-24T02:33:26;4.20;;;2.60;;
74620;SDS011;64861;47.546;19.254;2023-05-24T02:35:53;4.57;;;2.35;;
74620;SDS011;64861;47.546;19.254;2023-05-24T02:38:19;5.30;;;2.22;;
74620;SDS011;64861;47.546;19.254;2023-05-24T02:40:45;4.65;;;2.53;;
74620;SDS011;64861;47.546;19.254;2023-05-24T02:43:10;5.15;;;2.40;;
74620;SDS011;64861;47.546;19.254;2023-05-24T02:45:36;4.63;;;2.33;;
74620;SDS011;64861;47.546;19.254;2023-05-24T02:48:01;5.32;;;2.70;;
74620;SDS011;64861;47.546;19.254;2023-05-24T02:50:27;4.75;;;2.60;;
74620;SDS011;64861;47.546;19.254;2023-05-24T02:52:52;5.43;;;2.60;;
74620;SDS011;64861;47.546;19.254;2023-05-24T02:55:18;4.90;;;2.72;;
74620;SDS011;64861;47.546;19.254;2023-05-24T02:57:43;4.32;;;2.33;;
74620;SDS011;64861;47.546;19.254;2023-05-24T03:00:09;4.68;;;2.60;;
74620;SDS011;64861;47.546;19.254;2023-05-24T03:02:35;4.15;;;2.28;;
74620;SDS011;64861;47.546;19.254;2023-05-24T03:05:05;3.65;;;2.15;;
74620;SDS011;64861;47.546;19.254;2023-05-24T03:07:34;5.40;;;2.65;;
74620;SDS011;64861;47.546;19.254;2023-05-24T03:09:59;4.78;;;2.17;;
74620;SDS011;64861;47.546;19.254;2023-05-24T03:12:25;4.18;;;2.33;;
74620;SDS011;64861;47.546;19.254;2023-05-24T03:14:50;3.95;;;2.22;;
74620;SDS011;64861;47.546;19.254;2023-05-24T03:17:16;3.85;;;2.15;;
74620;SDS011;64861;47.546;19.254;2023-05-24T03:19:41;4.20;;;2.35;;
74620;SDS011;64861;47.546;19.254;2023-05-24T03:22:07;4.10;;;2.30;;
74620;SDS011;64861;47.546;19.254;2023-05-24T03:24:32;3.78;;;2.10;;
74620;SDS011;64861;47.546;19.254;2023-05-24T03:26:58;4.65;;;2.40;;
74620;SDS011;64861;47.546;19.254;2023-05-24T03:29:24;3.97;;;2.20;;
74620;SDS011;64861;47.546;19.254;2023-05-24T03:31:49;3.05;;;1.70;;
74620;SDS011;64861;47.546;19.254;2023-05-24T03:34:15;4.15;;;2.13;;
74620;SDS011;64861;47.546;19.254;2023-05-24T03:36:40;4.65;;;2.40;;
74620;SDS011;64861;47.546;19.254;2023-05-24T03:39:06;5.18;;;2.42;;
74620;SDS011;64861;47.546;19.254;2023-05-24T03:41:32;5.47;;;1.92;;
74620;SDS011;64861;47.546;19.254;2023-05-24T03:43:57;4.00;;;2.00;;
74620;SDS011;64861;47.546;19.254;2023-05-24T03:46:23;3.90;;;2.10;;
74620;SDS011;64861;47.546;19.254;2023-05-24T03:48:49;3.80;;;2.08;;
74620;SDS011;64861;47.546;19.254;2023-05-24T03:51:14;4.93;;;2.38;;
74620;SDS011;64861;47.546;19.254;2023-05-24T03:53:40;4.75;;;2.00;;
74620;SDS011;64861;47.546;19.254;2023-05-24T03:56:05;3.03;;;1.80;;
74620;SDS011;64861;47.546;19.254;2023-05-24T03:58:31;4.10;;;2.00;;
74620;SDS011;64861;47.546;19.254;2023-05-24T04:00:56;4.72;;;1.88;;
74620;SDS011;64861;47.546;19.254;2023-05-24T04:03:22;3.55;;;1.88;;
74620;SDS011;64861;47.546;19.254;2023-05-24T04:05:49;3.80;;;2.03;;
74620;SDS011;64861;47.546;19.254;2023-05-24T04:08:15;3.45;;;2.00;;
74620;SDS011;64861;47.546;19.254;2023-05-24T04:10:41;3.35;;;1.75;;
74620;SDS011;64861;47.546;19.254;2023-05-24T04:13:07;2.90;;;1.85;;
74620;SDS011;64861;47.546;19.254;2023-05-24T04:15:32;3.88;;;1.88;;
74620;SDS011;64861;47.546;19.254;2023-05-24T04:17:58;6.03;;;2.10;;
74620;SDS011;64861;47.546;19.254;2023-05-24T04:20:24;8.57;;;2.20;;
74620;SDS011;64861;47.546;19.254;2023-05-24T04:22:51;4.53;;;2.15;;
74620;SDS011;64861;47.546;19.254;2023-05-24T04:25:18;2.85;;;1.73;;
74620;SDS011;64861;47.546;19.254;2023-05-24T04:27:44;6.15;;;1.98;;
74620;SDS011;64861;47.546;19.254;2023-05-24T04:30:13;6.25;;;1.90;;
74620;SDS011;64861;47.546;19.254;2023-05-24T04:32:40;8.18;;;2.13;;
74620;SDS011;64861;47.546;19.254;2023-05-24T04:35:08;4.18;;;1.98;;
74620;SDS011;64861;47.546;19.254;2023-05-24T04:37:34;6.07;;;1.92;;
74620;SDS011;64861;47.546;19.254;2023-05-24T04:39:59;5.75;;;2.10;;
74620;SDS011;64861;47.546;19.254;2023-05-24T04:42:25;7.22;;;1.92;;
74620;SDS011;64861;47.546;19.254;2023-05-24T04:44:56;5.55;;;2.00;;
74620;SDS011;64861;47.546;19.254;2023-05-24T04:47:22;8.43;;;1.92;;
74620;SDS011;64861;47.546;19.254;2023-05-24T04:49:48;9.70;;;2.47;;
74620;SDS011;64861;47.546;19.254;2023-05-24T04:52:14;11.45;;;2.85;;
74620;SDS011;64861;47.546;19.254;2023-05-24T04:54:40;7.40;;;2.20;;
74620;SDS011;64861;47.546;19.254;2023-05-24T04:57:06;7.35;;;2.72;;
74620;SDS011;64861;47.546;19.254;2023-05-24T04:59:31;4.82;;;2.50;;
74620;SDS011;64861;47.546;19.254;2023-05-24T05:01:57;7.22;;;2.20;;
74620;SDS011;64861;47.546;19.254;2023-05-24T05:04:22;6.60;;;2.50;;
74620;SDS011;64861;47.546;19.254;2023-05-24T05:06:48;7.95;;;2.47;;
74620;SDS011;64861;47.546;19.254;2023-05-24T05:09:13;7.13;;;2.22;;
74620;SDS011;64861;47.546;19.254;2023-05-24T05:11:39;4.60;;;1.98;;
74620;SDS011;64861;47.546;19.254;2023-05-24T05:14:05;4.53;;;1.90;;
74620;SDS011;64861;47.546;19.254;2023-05-24T05:16:33;6.22;;;2.15;;
74620;SDS011;64861;47.546;19.254;2023-05-24T05:19:00;5.28;;;2.25;;
74620;SDS011;64861;47.546;19.254;2023-05-24T05:21:26;9.05;;;2.00;;
74620;SDS011;64861;47.546;19.254;2023-05-24T05:23:51;8.27;;;1.90;;
74620;SDS011;64861;47.546;19.254;2023-05-24T05:26:18;9.68;;;1.90;;
74620;SDS011;64861;47.546;19.254;2023-05-24T05:28:44;9.93;;;2.30;;
74620;SDS011;64861;47.546;19.254;2023-05-24T05:31:09;5.55;;;2.10;;
74620;SDS011;64861;47.546;19.254;2023-05-24T05:33:35;5.20;;;2.00;;
74620;SDS011;64861;47.546;19.254;2023-05-24T05:36:00;5.30;;;2.17;;
74620;SDS011;64861;47.546;19.254;2023-05-24T05:38:26;5.50;;;1.90;;
74620;SDS011;64861;47.546;19.254;2023-05-24T05:40:51;7.53;;;1.85;;
74620;SDS011;64861;47.546;19.254;2023-05-24T05:43:17;3.97;;;1.90;;
74620;SDS011;64861;47.546;19.254;2023-05-24T05:45:42;3.97;;;2.20;;
74620;SDS011;64861;47.546;19.254;2023-05-24T05:48:07;6.15;;;2.08;;
74620;SDS011;64861;47.546;19.254;2023-05-24T05:50:33;11.05;;;2.10;;
74620;SDS011;64861;47.546;19.254;2023-05-24T05:52:58;9.85;;;2.50;;
74620;SDS011;64861;47.546;19.254;2023-05-24T05:55:24;10.65;;;3.38;;
74620;SDS011;64861;47.546;19.254;2023-05-24T05:57:49;15.18;;;3.50;;
74620;SDS011;64861;47.546;19.254;2023-05-24T06:00:15;32.38;;;4.00;;
74620;SDS011;64861;47.546;19.254;2023-05-24T06:02:40;18.30;;;3.35;;
74620;SDS011;64861;47.546;19.254;2023-05-24T06:05:06;16.65;;;3.55;;
74620;SDS011;64861;47.546;19.254;2023-05-24T06:07:32;22.52;;;3.70;;
74620;SDS011;64861;47.546;19.254;2023-05-24T06:09:58;16.08;;;3.20;;
74620;SDS011;64861;47.546;19.254;2023-05-24T06:12:23;14.82;;;3.35;;
74620;SDS011;64861;47.546;19.254;2023-05-24T06:14:49;20.25;;;3.30;;
74620;SDS011;64861;47.546;19.254;2023-05-24T06:17:16;8.65;;;3.10;;
74620;SDS011;64861;47.546;19.254;2023-05-24T06:19:42;10.10;;;2.95;;
74620;SDS011;64861;47.546;19.254;2023-05-24T06:22:08;10.00;;;2.85;;
74620;SDS011;64861;47.546;19.254;2023-05-24T06:24:33;8.23;;;3.05;;
74620;SDS011;64861;47.546;19.254;2023-05-24T06:26:59;11.05;;;3.08;;
74620;SDS011;64861;47.546;19.254;2023-05-24T06:29:24;11.93;;;3.10;;
74620;SDS011;64861;47.546;19.254;2023-05-24T06:31:50;8.95;;;2.78;;
74620;SDS011;64861;47.546;19.254;2023-05-24T06:34:16;11.52;;;2.92;;
74620;SDS011;64861;47.546;19.254;2023-05-24T06:36:45;11.90;;;2.75;;
74620;SDS011;64861;47.546;19.254;2023-05-24T06:39:12;6.78;;;2.60;;
74620;SDS011;64861;47.546;19.254;2023-05-24T06:41:39;10.82;;;3.13;;
74620;SDS011;64861;47.546;19.254;2023-05-24T06:44:05;9.90;;;2.80;;
74620;SDS011;64861;47.546;19.254;2023-05-24T06:46:30;8.10;;;2.97;;
74620;SDS011;64861;47.546;19.254;2023-05-24T06:48:56;12.15;;;3.05;;
74620;SDS011;64861;47.546;19.254;2023-05-24T06:51:22;6.80;;;2.88;;
74620;SDS011;64861;47.546;19.254;2023-05-24T06:53:47;9.05;;;2.78;;
74620;SDS011;64861;47.546;19.254;2023-05-24T06:56:13;5.75;;;2.53;;
74620;SDS011;64861;47.546;19.254;2023-05-24T06:58:39;11.30;;;2.70;;
74620;SDS011;64861;47.546;19.254;2023-05-24T07:01:04;8.60;;;2.75;;
74620;SDS011;64861;47.546;19.254;2023-05-24T07:03:30;9.55;;;3.00;;
74620;SDS011;64861;47.546;19.254;2023-05-24T07:05:56;9.27;;;3.10;;
74620;SDS011;64861;47.546;19.254;2023-05-24T07:08:23;9.73;;;2.70;;
74620;SDS011;64861;47.546;19.254;2023-05-24T07:10:49;7.68;;;2.63;;
74620;SDS011;64861;47.546;19.254;2023-05-24T07:13:14;8.73;;;2.92;;
74620;SDS011;64861;47.546;19.254;2023-05-24T07:15:40;7.97;;;2.88;;
74620;SDS011;64861;47.546;19.254;2023-05-24T07:18:06;8.43;;;2.90;;
74620;SDS011;64861;47.546;19.254;2023-05-24T07:20:31;7.28;;;3.30;;
74620;SDS011;64861;47.546;19.254;2023-05-24T07:22:57;7.75;;;2.60;;
74620;SDS011;64861;47.546;19.254;2023-05-24T07:25:24;7.22;;;2.63;;
74620;SDS011;64861;47.546;19.254;2023-05-24T07:27:50;6.68;;;2.50;;
74620;SDS011;64861;47.546;19.254;2023-05-24T07:30:15;7.55;;;2.42;;
74620;SDS011;64861;47.546;19.254;2023-05-24T07:32:41;10.20;;;3.05;;
74620;SDS011;64861;47.546;19.254;2023-05-24T07:35:06;6.65;;;2.83;;
74620;SDS011;64861;47.546;19.254;2023-05-24T07:37:32;7.50;;;2.67;;
74620;SDS011;64861;47.546;19.254;2023-05-24T07:39:58;7.60;;;2.83;;
74620;SDS011;64861;47.546;19.254;2023-05-24T07:42:23;6.88;;;2.95;;
74620;SDS011;64861;47.546;19.254;2023-05-24T07:44:49;7.20;;;2.80;;
74620;SDS011;64861;47.546;19.254;2023-05-24T07:47:14;8.15;;;3.03;;
74620;SDS011;64861;47.546;19.254;2023-05-24T07:49:40;8.82;;;2.60;;
74620;SDS011;64861;47.546;19.254;2023-05-24T07:52:06;5.13;;;2.33;;
74620;SDS011;64861;47.546;19.254;2023-05-24T07:54:31;6.30;;;2.70;;
74620;SDS011;64861;47.546;19.254;2023-05-24T07:56:57;6.25;;;2.83;;
74620;SDS011;64861;47.546;19.254;2023-05-24T07:59:22;5.65;;;2.53;;
74620;SDS011;64861;47.546;19.254;2023-05-24T08:01:48;7.80;;;2.88;;
74620;SDS011;64861;47.546;19.254;2023-05-24T08:04:13;7.53;;;2.63;;
74620;SDS011;64861;47.546;19.254;2023-05-24T08:06:40;7.70;;;2.75;;
74620;SDS011;64861;47.546;19.254;2023-05-24T08:09:05;8.93;;;2.85;;
74620;SDS011;64861;47.546;19.254;2023-05-24T08:11:33;5.75;;;2.60;;
74620;SDS011;64861;47.546;19.254;2023-05-24T08:13:58;5.65;;;2.17;;
74620;SDS011;64861;47.546;19.254;2023-05-24T08:16:24;5.47;;;2.40;;
74620;SDS011;64861;47.546;19.254;2023-05-24T08:18:50;7.00;;;2.70;;
74620;SDS011;64861;47.546;19.254;2023-05-24T08:21:15;6.50;;;2.58;;
74620;SDS011;64861;47.546;19.254;2023-05-24T08:23:41;4.50;;;2.38;;
74620;SDS011;64861;47.546;19.254;2023-05-24T08:26:07;6.47;;;2.35;;
74620;SDS011;64861;47.546;19.254;2023-05-24T08:28:33;5.57;;;2.28;;
74620;SDS011;64861;47.546;19.254;2023-05-24T08:30:59;6.38;;;2.53;;
74620;SDS011;64861;47.546;19.254;2023-05-24T08:33:24;5.63;;;2.55;;
74620;SDS011;64861;47.546;19.254;2023-05-24T08:35:50;4.72;;;2.65;;
74620;SDS011;64861;47.546;19.254;2023-05-24T08:38:16;7.35;;;2.60;;
74620;SDS011;64861;47.546;19.254;2023-05-24T08:40:42;6.28;;;2.65;;
74620;SDS011;64861;47.546;19.254;2023-05-24T08:43:07;5.90;;;2.42;;
74620;SDS011;64861;47.546;19.254;2023-05-24T08:45:39;5.30;;;2.50;;
74620;SDS011;64861;47.546;19.254;2023-05-24T08:48:05;6.38;;;2.30;;
74620;SDS011;64861;47.546;19.254;2023-05-24T08:50:31;5.32;;;2.30;;
74620;SDS011;64861;47.546;19.254;2023-05-24T08:52:58;4.18;;;2.28;;
74620;SDS011;64861;47.546;19.254;2023-05-24T08:55:24;7.28;;;2.75;;
74620;SDS011;64861;47.546;19.254;2023-05-24T08:57:50;4.97;;;2.63;;
74620;SDS011;64861;47.546;19.254;2023-05-24T09:00:16;5.75;;;2.42;;
74620;SDS011;64861;47.546;19.254;2023-05-24T09:02:44;5.75;;;2.60;;
74620;SDS011;64861;47.546;19.254;2023-05-24T09:05:10;6.80;;;2.50;;
74620;SDS011;64861;47.546;19.254;2023-05-24T09:07:38;4.82;;;2.33;;
74620;SDS011;64861;47.546;19.254;2023-05-24T09:10:05;5.32;;;2.63;;
74620;SDS011;64861;47.546;19.254;2023-05-24T09:12:32;5.10;;;2.60;;
74620;SDS011;64861;47.546;19.254;2023-05-24T09:15:00;6.15;;;2.60;;
74620;SDS011;64861;47.546;19.254;2023-05-24T09:17:26;6.32;;;2.88;;
74620;SDS011;64861;47.546;19.254;2023-05-24T09:19:53;5.63;;;2.60;;
74620;SDS011;64861;47.546;19.254;2023-05-24T09:22:18;4.65;;;2.50;;
74620;SDS011;64861;47.546;19.254;2023-05-24T09:24:50;6.82;;;2.42;;
74620;SDS011;64861;47.546;19.254;2023-05-24T09:27:16;6.53;;;2.50;;
74620;SDS011;64861;47.546;19.254;2023-05-24T09:29:45;9.65;;;2.20;;
74620;SDS011;64861;47.546;19.254;2023-05-24T09:32:13;4.55;;;2.40;;
74620;SDS011;64861;47.546;19.254;2023-05-24T09:34:39;4.90;;;2.35;;
74620;SDS011;64861;47.546;19.254;2023-05-24T09:37:15;4.78;;;2.60;;
74620;SDS011;64861;47.546;19.254;2023-05-24T09:39:45;7.57;;;2.60;;
74620;SDS011;64861;47.546;19.254;2023-05-24T09:42:15;6.43;;;2.90;;
74620;SDS011;64861;47.546;19.254;2023-05-24T09:44:45;3.95;;;2.28;;
74620;SDS011;64861;47.546;19.254;2023-05-24T09:47:13;4.85;;;2.67;;
74620;SDS011;64861;47.546;19.254;2023-05-24T09:49:39;5.90;;;2.50;;
74620;SDS011;64861;47.546;19.254;2023-05-24T09:52:05;5.45;;;2.80;;
74620;SDS011;64861;47.546;19.254;2023-05-24T09:54:31;4.95;;;2.40;;
74620;SDS011;64861;47.546;19.254;2023-05-24T09:57:01;5.20;;;2.65;;
74620;SDS011;64861;47.546;19.254;2023-05-24T09:59:31;5.95;;;2.72;;
74620;SDS011;64861;47.546;19.254;2023-05-24T10:02:08;5.13;;;2.90;;
74620;SDS011;64861;47.546;19.254;2023-05-24T10:04:34;4.88;;;2.33;;
74620;SDS011;64861;47.546;19.254;2023-05-24T10:07:01;4.40;;;2.75;;
74620;SDS011;64861;47.546;19.254;2023-05-24T10:09:29;4.35;;;2.47;;
74620;SDS011;64861;47.546;19.254;2023-05-24T10:12:01;4.10;;;2.40;;
74620;SDS011;64861;47.546;19.254;2023-05-24T10:14:35;4.82;;;2.65;;
74620;SDS011;64861;47.546;19.254;2023-05-24T10:17:05;5.57;;;3.25;;
74620;SDS011;64861;47.546;19.254;2023-05-24T10:19:34;4.40;;;2.63;;
74620;SDS011;64861;47.546;19.254;2023-05-24T10:22:04;7.07;;;2.90;;
74620;SDS011;64861;47.546;19.254;2023-05-24T10:24:37;5.28;;;2.90;;
74620;SDS011;64861;47.546;19.254;2023-05-24T10:27:08;5.22;;;2.75;;
74620;SDS011;64861;47.546;19.254;2023-05-24T10:32:10;6.03;;;2.60;;
74620;SDS011;64861;47.546;19.254;2023-05-24T10:34:39;5.35;;;2.80;;
74620;SDS011;64861;47.546;19.254;2023-05-24T10:37:06;5.28;;;2.67;;
74620;SDS011;64861;47.546;19.254;2023-05-24T10:39:32;4.78;;;2.63;;
74620;SDS011;64861;47.546;19.254;2023-05-24T10:42:01;7.13;;;2.90;;
74620;SDS011;64861;47.546;19.254;2023-05-24T10:44:28;5.93;;;3.20;;
74620;SDS011;64861;47.546;19.254;2023-05-24T10:47:11;5.43;;;3.35;;
74620;SDS011;64861;47.546;19.254;2023-05-24T10:49:50;5.40;;;2.97;;
74620;SDS011;64861;47.546;19.254;2023-05-24T10:52:18;5.15;;;2.97;;
74620;SDS011;64861;47.546;19.254;2023-05-24T10:57:29;5.10;;;2.67;;
74620;SDS011;64861;47.546;19.254;2023-05-24T11:02:58;5.07;;;2.90;;
74620;SDS011;64861;47.546;19.254;2023-05-24T11:08:23;5.25;;;3.03;;
74620;SDS011;64861;47.546;19.254;2023-05-24T11:11:12;5.57;;;3.38;;
74620;SDS011;64861;47.546;19.254;2023-05-24T11:13:40;4.78;;;2.72;;
74620;SDS011;64861;47.546;19.254;2023-05-24T11:16:06;4.90;;;3.10;;
74620;SDS011;64861;47.546;19.254;2023-05-24T11:18:31;5.15;;;2.75;;
74620;SDS011;64861;47.546;19.254;2023-05-24T11:21:02;4.82;;;2.75;;
74620;SDS011;64861;47.546;19.254;2023-05-24T11:23:29;5.88;;;3.15;;
74620;SDS011;64861;47.546;19.254;2023-05-24T11:25:55;5.88;;;2.83;;
74620;SDS011;64861;47.546;19.254;2023-05-24T11:28:21;5.18;;;2.97;;
74620;SDS011;64861;47.546;19.254;2023-05-24T11:30:47;5.70;;;2.90;;
74620;SDS011;64861;47.546;19.254;2023-05-24T11:33:16;4.78;;;2.75;;
74620;SDS011;64861;47.546;19.254;2023-05-24T11:35:44;5.15;;;3.13;;
74620;SDS011;64861;47.546;19.254;2023-05-24T11:38:11;6.55;;;2.80;;
74620;SDS011;64861;47.546;19.254;2023-05-24T11:40:39;5.60;;;3.47;;
74620;SDS011;64861;47.546;19.254;2023-05-24T11:43:09;6.10;;;3.10;;
74620;SDS011;64861;47.546;19.254;2023-05-24T11:45:36;5.43;;;3.25;;
74620;SDS011;64861;47.546;19.254;2023-05-24T11:48:04;5.55;;;2.83;;
74620;SDS011;64861;47.546;19.254;2023-05-24T11:50:30;7.78;;;3.22;;
74620;SDS011;64861;47.546;19.254;2023-05-24T11:53:00;5.15;;;3.10;;
74620;SDS011;64861;47.546;19.254;2023-05-24T11:55:27;4.72;;;2.95;;
74620;SDS011;64861;47.546;19.254;2023-05-24T11:57:53;5.28;;;3.00;;
74620;SDS011;64861;47.546;19.254;2023-05-24T12:00:23;5.63;;;2.50;;
74620;SDS011;64861;47.546;19.254;2023-05-24T12:02:49;5.25;;;2.75;;
74620;SDS011;64861;47.546;19.254;2023-05-24T12:05:17;3.63;;;2.40;;
74620;SDS011;64861;47.546;19.254;2023-05-24T12:07:43;3.90;;;2.22;;
74620;SDS011;64861;47.546;19.254;2023-05-24T12:10:15;4.68;;;2.67;;
74620;SDS011;64861;47.546;19.254;2023-05-24T12:12:42;3.97;;;2.33;;
74620;SDS011;64861;47.546;19.254;2023-05-24T12:15:09;4.93;;;2.75;;
74620;SDS011;64861;47.546;19.254;2023-05-24T12:17:35;5.07;;;2.65;;
74620;SDS011;64861;47.546;19.254;2023-05-24T12:20:01;5.07;;;2.80;;
74620;SDS011;64861;47.546;19.254;2023-05-24T12:22:30;6.20;;;2.72;;
74620;SDS011;64861;47.546;19.254;2023-05-24T12:24:56;5.50;;;2.90;;
74620;SDS011;64861;47.546;19.254;2023-05-24T12:27:28;7.03;;;2.83;;
74620;SDS011;64861;47.546;19.254;2023-05-24T12:32:20;5.10;;;2.90;;
74620;SDS011;64861;47.546;19.254;2023-05-24T12:34:48;6.53;;;3.20;;
74620;SDS011;64861;47.546;19.254;2023-05-24T12:37:14;10.60;;;2.78;;
74620;SDS011;64861;47.546;19.254;2023-05-24T12:39:39;5.55;;;3.03;;
74620;SDS011;64861;47.546;19.254;2023-05-24T12:42:06;5.28;;;3.00;;
74620;SDS011;64861;47.546;19.254;2023-05-24T12:44:33;3.67;;;2.17;;
74620;SDS011;64861;47.546;19.254;2023-05-24T12:47:01;5.15;;;2.63;;
74620;SDS011;64861;47.546;19.254;2023-05-24T12:49:28;3.72;;;2.33;;
74620;SDS011;64861;47.546;19.254;2023-05-24T12:51:55;6.68;;;2.30;;
74620;SDS011;64861;47.546;19.254;2023-05-24T12:54:22;4.35;;;2.30;;
74620;SDS011;64861;47.546;19.254;2023-05-24T12:56:49;5.22;;;2.50;;
74620;SDS011;64861;47.546;19.254;2023-05-24T12:59:15;5.25;;;2.60;;
74620;SDS011;64861;47.546;19.254;2023-05-24T13:01:41;6.05;;;2.65;;
74620;SDS011;64861;47.546;19.254;2023-05-24T13:04:07;5.05;;;2.58;;
74620;SDS011;64861;47.546;19.254;2023-05-24T13:06:36;6.55;;;2.90;;
74620;SDS011;64861;47.546;19.254;2023-05-24T13:11:50;14.63;;;3.38;;
74620;SDS011;64861;47.546;19.254;2023-05-24T13:14:16;14.88;;;3.25;;
74620;SDS011;64861;47.546;19.254;2023-05-24T13:19:18;16.52;;;3.42;;
74620;SDS011;64861;47.546;19.254;2023-05-24T13:24:19;15.57;;;3.42;;
74620;SDS011;64861;47.546;19.254;2023-05-24T13:29:14;16.38;;;3.40;;
74620;SDS011;64861;47.546;19.254;2023-05-24T13:34:15;13.50;;;3.20;;
74620;SDS011;64861;47.546;19.254;2023-05-24T13:36:41;13.52;;;3.30;;
74620;SDS011;64861;47.546;19.254;2023-05-24T13:39:07;9.65;;;3.30;;
74620;SDS011;64861;47.546;19.254;2023-05-24T13:41:34;10.20;;;2.90;;
74620;SDS011;64861;47.546;19.254;2023-05-24T13:44:02;8.38;;;2.75;;
74620;SDS011;64861;47.546;19.254;2023-05-24T13:49:03;9.70;;;3.47;;
74620;SDS011;64861;47.546;19.254;2023-05-24T13:51:29;8.88;;;3.15;;
74620;SDS011;64861;47.546;19.254;2023-05-24T13:53:54;6.57;;;2.97;;
74620;SDS011;64861;47.546;19.254;2023-05-24T13:56:20;10.05;;;3.28;;
74620;SDS011;64861;47.546;19.254;2023-05-24T13:58:48;10.10;;;3.35;;
74620;SDS011;64861;47.546;19.254;2023-05-24T14:01:14;7.43;;;2.75;;
74620;SDS011;64861;47.546;19.254;2023-05-24T14:03:39;9.43;;;3.58;;
74620;SDS011;64861;47.546;19.254;2023-05-24T14:06:05;9.95;;;3.42;;
74620;SDS011;64861;47.546;19.254;2023-05-24T14:08:31;8.20;;;3.08;;
74620;SDS011;64861;47.546;19.254;2023-05-24T14:10:57;12.13;;;3.15;;
74620;SDS011;64861;47.546;19.254;2023-05-24T14:15:58;9.40;;;3.45;;
74620;SDS011;64861;47.546;19.254;2023-05-24T14:18:23;7.07;;;3.25;;
74620;SDS011;64861;47.546;19.254;2023-05-24T14:20:49;8.55;;;3.33;;
74620;SDS011;64861;47.546;19.254;2023-05-24T14:23:14;6.03;;;3.08;;
74620;SDS011;64861;47.546;19.254;2023-05-24T14:25:40;6.82;;;3.40;;
74620;SDS011;64861;47.546;19.254;2023-05-24T14:28:06;9.55;;;4.10;;
74620;SDS011;64861;47.546;19.254;2023-05-24T14:30:33;10.05;;;3.65;;
74620;SDS011;64861;47.546;19.254;2023-05-24T14:33:01;7.82;;;4.00;;
74620;SDS011;64861;47.546;19.254;2023-05-24T14:35:27;6.30;;;3.30;;
74620;SDS011;64861;47.546;19.254;2023-05-24T14:37:52;10.20;;;3.60;;
74620;SDS011;64861;47.546;19.254;2023-05-24T14:40:18;7.80;;;3.20;;
74620;SDS011;64861;47.546;19.254;2023-05-24T14:42:43;8.57;;;3.70;;
74620;SDS011;64861;47.546;19.254;2023-05-24T14:45:09;7.30;;;3.30;;
74620;SDS011;64861;47.546;19.254;2023-05-24T14:47:35;6.40;;;2.90;;
74620;SDS011;64861;47.546;19.254;2023-05-24T14:50:00;4.78;;;2.67;;
74620;SDS011;64861;47.546;19.254;2023-05-24T14:52:26;6.45;;;3.10;;
74620;SDS011;64861;47.546;19.254;2023-05-24T14:54:51;6.05;;;2.70;;
74620;SDS011;64861;47.546;19.254;2023-05-24T14:57:17;6.22;;;3.30;;
74620;SDS011;64861;47.546;19.254;2023-05-24T14:59:43;5.65;;;2.90;;
74620;SDS011;64861;47.546;19.254;2023-05-24T15:02:08;6.63;;;2.88;;
74620;SDS011;64861;47.546;19.254;2023-05-24T15:04:33;6.47;;;2.83;;
74620;SDS011;64861;47.546;19.254;2023-05-24T15:06:59;5.10;;;2.78;;
74620;SDS011;64861;47.546;19.254;2023-05-24T15:09:24;4.55;;;2.65;;
74620;SDS011;64861;47.546;19.254;2023-05-24T15:11:50;6.38;;;2.88;;
74620;SDS011;64861;47.546;19.254;2023-05-24T15:14:15;4.63;;;2.75;;